Create Custom Reports and Graphics: Custom Report

Soquel - CalFire

Current Conditions

9/20/20 3:30 PM (-07:00)
Updated Every 15 Minutes
Temp 88.7 °F   9.3
RH 25 %   17
Dew Pt 48.6 °F   5.8
Wind Spd 2.6 mph
Wind Dir WSW | 249 °
Wind Gust 5.6 mph   2.0
Latest Rain 0.00 In
Daily Rain 0.00 In
Leaf Wet 0.0 mins
Daily Min Temp 60.2 °F   6.9
Daily Max Temp 89.6 °F   9.1

Daily Summary

Last 30 Days

Daily Data | America/Los_Angeles
as of 9/20/20 3:38 PM PDT
Date Daily Max Temp (°F) Daily Min Temp (°F) Daily Rain (In) Seasonal Rainfall (In) Daily Solar Rad (Cal/cm2) Daily ETo (in) Wind Spd (mph) Daily Max Wind (mph) Max Wind Dir (°) Dew Pt (°F) Max RH (%) Min RH (%) Daily Leaf Wet Hrs (hrs) Soil Temp (°F) Soil Moist (%) Fuel Moisture (%) Max Fuel Moisture (%) Min Fuel Moisture (%) Bat Volt Min Day (V)
9/19/20 81.5 53.3 0.00 0.02 501 0.146 1.4 8.2 NW | 306 52.1 87 36 6.6 72.9 11.8 11 21 0 12.5
9/18/20 82.6 55.7 0.00 0.02 510 0.148 1.4 8.8 SSW | 202 53.0 86 31 2.3 72.9 11.9 9 16 0 12.5
9/17/20 86.0 61.7 0.00 0.02 486 0.143 1.2 7.3 W | 260 54.2 81 33 0.0 73.0 11.8 7 13 0 12.5
9/16/20 88.2 58.4 0.00 0.02 526 0.159 1.3 6.6 WSW | 251 47.2 72 21 0.0 73.1 11.8 7 12 0 12.5
9/15/20 86.2 59.2 0.00 0.02 472 0.136 1.0 6.5 SW | 221 44.7 69 13 0.0 73.4 11.8 8 15 0 12.5
9/14/20 79.7 46.8 0.00 0.02 494 0.140 0.8 5.7 NW | 316 50.6 95 44 10.5 73.6 11.8 12 23 0 12.5
9/13/20 73.6 50.5 0.00 0.02 447 0.123 0.8 5.3 WSW | 242 51.3 94 51 5.7 73.9 11.8 9 17 0 12.5
9/12/20 87.0 62.4 0.00 0.02 482 0.142 1.1 6.9 WSW | 242 45.6 64 26 0.0 74.4 11.8 7 13 0 12.4
9/11/20 75.6 57.5 0.00 0.02 250 0.074 0.7 3.3 WNW | 285 45.8 75 35 0.0 74.8 11.8 10 15 1 12.4
9/10/20 69.8 58.0 0.00 0.02 136 0.043 0.5 2.3 E | 84 50.2 79 54 0.0 75.1 11.8 13 15 8 12.4
9/9/20 66.4 51.3 0.00 0.02 58 0.018 0.4 3.3 NE | 36 49.5 90 47 2.4 75.1 12.0 12 14 8 12.4
9/8/20 90.6 58.7 0.00 0.02 300 0.094 1.4 11.4 NE | 35 41.5 62 10 0.0 74.9 12.3 3 8 0 12.4
9/7/20 110.5 77.2 0.00 0.02 522 0.164 1.3 10.9 NNE | 30 43.6 30 8 0.0 74.6 12.4 0 4 0 12.5
9/6/20 112.3 79.0 0.00 0.02 517 0.165 1.7 9.4 NNW | 338 47.0 34 11 0.0 74.5 12.3 2 5 0 12.4
9/5/20 102.8 71.0 0.00 0.02 508 0.162 1.4 7.4 WSW | 250 45.9 45 14 0.0 74.5 12.2 4 9 0 12.4
9/4/20 92.5 59.7 0.00 0.02 538 0.165 1.1 6.6 WSW | 250 49.1 62 22 0.0 74.6 12.2 7 15 0 12.5
9/3/20 85.5 52.1 0.00 0.02 544 0.166 1.0 6.7 SW | 224 53.4 93 37 7.7 74.9 12.1 12 25 0 12.5
9/2/20 78.1 49.9 0.00 0.02 536 0.150 1.0 6.4 WNW | 284 52.8 95 46 11.1 75.2 12.1 13 22 0 12.5
9/1/20 69.6 46.9 0.00 0.02 425 0.115 0.8 6.5 W | 276 51.2 94 60 15.2 75.4 12.1 15 23 4 12.5
8/31/20 77.4 48.8 0.00 0.02 507 0.141 0.9 6.6 W | 280 49.3 94 38 7.2 75.6 12.2 10 18 0 12.5
8/30/20 76.4 54.8 0.00 0.02 504 0.146 0.9 5.5 WSW | 258 45.5 85 30 0.0 75.8 12.2 9 15 0 12.4
8/29/20 77.1 52.7 0.00 0.02 573 0.166 1.0 7.2 SSW | 211 50.5 88 40 2.6 76.0 12.2 12 20 0 12.5
8/28/20 78.3 48.2 0.00 0.02 541 0.157 0.8 5.8 NW | 309 51.7 94 46 14.4 76.2 12.3 13 25 0 12.5
8/27/20 76.3 47.8 0.00 0.02 611 0.171 1.0 7.8 WNW | 287 51.0 95 47 13.3 76.3 12.4 13 22 0 12.5
8/26/20 80.8 50.0 0.00 0.02 562 0.165 0.9 5.9 NW | 306 54.5 93 47 13.9 76.4 12.4 12 21 0 12.5
8/25/20 80.7 56.6 0.00 0.02 548 0.164 1.1 7.3 WSW | 242 57.1 92 50 12.6 76.4 12.5 10 20 0 12.5
8/24/20 84.7 58.4 0.00 0.02 567 0.176 1.2 7.2 SW | 224 60.9 88 45 14.4 76.4 12.5 8 16 0 12.5
8/23/20 83.9 66.7 0.00 0.02 392 0.123 1.4 11.4 S | 189 56.5 80 35 11.0 76.4 12.5 7 12 0 12.5
8/22/20 92.5 64.5 0.00 0.02 494 0.158 1.1 7.7 WSW | 248 55.8 70 30 12.3 76.4 12.6 6 12 0 12.4
8/21/20 96.0 60.7 0.00 0.02 612 0.195 1.3 10.2 NNE | 31 53.6 70 22 13.7 76.3 12.6 5 11 0 12.4
Max 112.3 79.0 0.00 - 612 0.195 1.7 11.4 - 60.9 95 60 15.2 76.4 12.6 15 25 8 12.5
Avg - - - - - - 1.1 - - 50.5 - - - 75.0 12.1 9 16 1 -
Min 66.4 46.8 0.00 - 58 0.018 0.4 2.3 - 41.5 30 8 0.0 72.9 11.8 0 4 0 12.4